North Branford, Connecticut
Current Conditions -  °F | °C
As of 1:53 AM on Sunday 26 Oct 2014 (Local Time) from KHVN Reporting Station
Overcast Overcast  
Wind Chill: 62°   Ceiling: 6500
Heat Index: 62°   Visibility: 10mi
Dew Point: 47°   Wind: 5mph
Humidity: 58%   Direction: 280°W
Pressure: 29.53"   Gusts: NA
Location:  41.33°N, 72.77°W
Report Text: KHVN 260553Z AUTO 28004KT 10SM OVC065 17/08 A2953 RMK AO2 SLP000 T01670083 10178 20156 56010
Loading
Personal Weather Stations






























Interactive Weather Map
Tropical Storm Tracking
New forecast layout! Learn more

10-Day Weather Forecast

Advertisements
Track Severe Weather on mobile